sensor_id;sensor_type;location;lat;lon;timestamp;pressure;altitude;pressure_sealevel;temperature;humidity
14393;BME280;7281;42.678;23.372;2022-10-16T00:01:37;95732.66;;;15.54;47.31
14393;BME280;7281;42.678;23.372;2022-10-16T00:04:05;95728.38;;;15.07;47.40
14393;BME280;7281;42.678;23.372;2022-10-16T00:06:32;95737.38;;;15.27;47.69
14393;BME280;7281;42.678;23.372;2022-10-16T00:08:59;95742.13;;;15.24;47.60
14393;BME280;7281;42.678;23.372;2022-10-16T00:11:29;95746.09;;;15.32;47.14
14393;BME280;7281;42.678;23.372;2022-10-16T00:13:58;95744.22;;;15.27;47.67
14393;BME280;7281;42.678;23.372;2022-10-16T00:16:27;95749.53;;;15.17;47.70
14393;BME280;7281;42.678;23.372;2022-10-16T00:18:54;95757.41;;;15.02;48.24
14393;BME280;7281;42.678;23.372;2022-10-16T00:21:24;95752.19;;;15.33;47.32
14393;BME280;7281;42.678;23.372;2022-10-16T00:23:57;95738.97;;;15.17;47.70
14393;BME280;7281;42.678;23.372;2022-10-16T00:26:27;95754.28;;;15.31;47.31
14393;BME280;7281;42.678;23.372;2022-10-16T00:28:54;95754.28;;;15.31;47.21
14393;BME280;7281;42.678;23.372;2022-10-16T00:31:22;95754.78;;;14.97;48.36
14393;BME280;7281;42.678;23.372;2022-10-16T00:33:49;95760.38;;;15.36;46.94
14393;BME280;7281;42.678;23.372;2022-10-16T00:36:19;95762.19;;;15.25;47.01
14393;BME280;7281;42.678;23.372;2022-10-16T00:38:50;95773.53;;;15.11;47.33
14393;BME280;7281;42.678;23.372;2022-10-16T00:41:21;95771.44;;;15.33;46.86
14393;BME280;7281;42.678;23.372;2022-10-16T00:43:52;95751.63;;;15.36;47.13
14393;BME280;7281;42.678;23.372;2022-10-16T00:46:57;95771.16;;;15.35;46.99
14393;BME280;7281;42.678;23.372;2022-10-16T00:49:19;95752.44;;;15.36;46.46
14393;BME280;7281;42.678;23.372;2022-10-16T00:51:51;95760.63;;;15.55;46.33
14393;BME280;7281;42.678;23.372;2022-10-16T00:54:23;95755.84;;;15.32;46.97
14393;BME280;7281;42.678;23.372;2022-10-16T00:56:52;95751.63;;;15.10;46.80
14393;BME280;7281;42.678;23.372;2022-10-16T00:59:24;95759.81;;;15.24;46.83
14393;BME280;7281;42.678;23.372;2022-10-16T01:01:53;95762.72;;;15.17;46.79
14393;BME280;7281;42.678;23.372;2022-10-16T01:04:20;95761.09;;;14.96;47.03
14393;BME280;7281;42.678;23.372;2022-10-16T01:12:08;95777.81;;;14.45;48.26
14393;BME280;7281;42.678;23.372;2022-10-16T01:14:47;95778.31;;;14.32;48.94
14393;BME280;7281;42.678;23.372;2022-10-16T01:17:20;95775.69;;;14.37;47.89
14393;BME280;7281;42.678;23.372;2022-10-16T01:22:53;95769.50;;;14.16;48.64
14393;BME280;7281;42.678;23.372;2022-10-16T01:28:14;95761.06;;;13.73;49.44
14393;BME280;7281;42.678;23.372;2022-10-16T01:30:44;95770.69;;;13.94;49.55
14393;BME280;7281;42.678;23.372;2022-10-16T01:33:17;95754.88;;;13.94;48.68
14393;BME280;7281;42.678;23.372;2022-10-16T01:35:53;95763.81;;;13.93;48.79
14393;BME280;7281;42.678;23.372;2022-10-16T01:38:37;95754.53;;;14.27;47.97
14393;BME280;7281;42.678;23.372;2022-10-16T01:41:21;95739.53;;;14.28;47.79
14393;BME280;7281;42.678;23.372;2022-10-16T01:46:24;95762.53;;;14.42;48.16
14393;BME280;7281;42.678;23.372;2022-10-16T01:48:53;95767.25;;;14.35;47.80
14393;BME280;7281;42.678;23.372;2022-10-16T01:51:22;95769.69;;;14.52;47.62
14393;BME280;7281;42.678;23.372;2022-10-16T01:53:53;95772.06;;;14.58;47.04
14393;BME280;7281;42.678;23.372;2022-10-16T01:56:22;95773.13;;;14.52;47.28
14393;BME280;7281;42.678;23.372;2022-10-16T01:59:03;95779.28;;;14.26;48.06
14393;BME280;7281;42.678;23.372;2022-10-16T02:01:33;95779.81;;;14.23;47.65
14393;BME280;7281;42.678;23.372;2022-10-16T02:04:08;95768.81;;;14.36;47.60
14393;BME280;7281;42.678;23.372;2022-10-16T02:06:37;95772.94;;;14.22;47.42
14393;BME280;7281;42.678;23.372;2022-10-16T02:09:04;95778.88;;;14.39;47.50
14393;BME280;7281;42.678;23.372;2022-10-16T02:11:31;95787.31;;;14.41;47.69
14393;BME280;7281;42.678;23.372;2022-10-16T02:14:05;95763.47;;;14.26;47.57
14393;BME280;7281;42.678;23.372;2022-10-16T02:16:41;95790.50;;;14.48;46.82
14393;BME280;7281;42.678;23.372;2022-10-16T02:19:15;95789.84;;;14.26;48.10
14393;BME280;7281;42.678;23.372;2022-10-16T02:21:48;95794.19;;;14.05;48.22
14393;BME280;7281;42.678;23.372;2022-10-16T02:26:58;95790.28;;;14.13;47.59
14393;BME280;7281;42.678;23.372;2022-10-16T02:29:26;95799.75;;;14.09;48.12
14393;BME280;7281;42.678;23.372;2022-10-16T02:31:58;95794.34;;;13.89;48.49
14393;BME280;7281;42.678;23.372;2022-10-16T02:34:30;95810.56;;;14.12;47.84
14393;BME280;7281;42.678;23.372;2022-10-16T02:37:00;95799.41;;;14.32;47.59
14393;BME280;7281;42.678;23.372;2022-10-16T02:39:28;95810.84;;;14.16;47.92
14393;BME280;7281;42.678;23.372;2022-10-16T02:41:56;95809.28;;;14.15;47.81
14393;BME280;7281;42.678;23.372;2022-10-16T02:44:23;95800.84;;;14.13;47.67
14393;BME280;7281;42.678;23.372;2022-10-16T02:46:49;95807.19;;;14.17;47.76
14393;BME280;7281;42.678;23.372;2022-10-16T02:49:16;95813.84;;;13.88;47.99
14393;BME280;7281;42.678;23.372;2022-10-16T02:51:44;95810.53;;;14.02;47.69
14393;BME280;7281;42.678;23.372;2022-10-16T02:54:11;95807.13;;;14.07;47.30
14393;BME280;7281;42.678;23.372;2022-10-16T02:56:38;95817.94;;;14.10;47.76
14393;BME280;7281;42.678;23.372;2022-10-16T02:59:05;95821.91;;;14.13;47.36
14393;BME280;7281;42.678;23.372;2022-10-16T03:01:32;95815.50;;;13.99;46.89
14393;BME280;7281;42.678;23.372;2022-10-16T03:03:58;95822.22;;;13.80;47.81
14393;BME280;7281;42.678;23.372;2022-10-16T03:06:26;95817.81;;;13.90;46.97
14393;BME280;7281;42.678;23.372;2022-10-16T03:08:53;95825.97;;;13.89;47.09
14393;BME280;7281;42.678;23.372;2022-10-16T03:11:19;95821.06;;;13.66;48.28
14393;BME280;7281;42.678;23.372;2022-10-16T03:13:46;95821.44;;;13.79;47.77
14393;BME280;7281;42.678;23.372;2022-10-16T03:16:13;95826.47;;;13.81;47.71
14393;BME280;7281;42.678;23.372;2022-10-16T03:18:40;95833.19;;;13.67;47.92
14393;BME280;7281;42.678;23.372;2022-10-16T03:21:07;95824.75;;;13.65;48.14
14393;BME280;7281;42.678;23.372;2022-10-16T03:23:34;95823.25;;;13.74;47.88
14393;BME280;7281;42.678;23.372;2022-10-16T03:26:00;95827.97;;;13.72;48.07
14393;BME280;7281;42.678;23.372;2022-10-16T03:28:27;95832.94;;;13.37;49.01
14393;BME280;7281;42.678;23.372;2022-10-16T03:30:54;95831.44;;;13.46;48.47
14393;BME280;7281;42.678;23.372;2022-10-16T03:33:21;95834.13;;;13.56;48.15
14393;BME280;7281;42.678;23.372;2022-10-16T03:35:52;95836.25;;;13.54;48.54
14393;BME280;7281;42.678;23.372;2022-10-16T03:38:20;95835.44;;;13.27;49.70
14393;BME280;7281;42.678;23.372;2022-10-16T03:40:47;95832.38;;;13.35;48.85
14393;BME280;7281;42.678;23.372;2022-10-16T03:43:14;95833.50;;;13.44;48.15
14393;BME280;7281;42.678;23.372;2022-10-16T03:45:42;95835.13;;;13.45;48.23
14393;BME280;7281;42.678;23.372;2022-10-16T03:48:08;95834.69;;;13.58;48.31
14393;BME280;7281;42.678;23.372;2022-10-16T03:50:35;95829.84;;;13.45;47.95
14393;BME280;7281;42.678;23.372;2022-10-16T03:53:03;95830.13;;;13.80;47.77
14393;BME280;7281;42.678;23.372;2022-10-16T03:55:29;95827.34;;;13.60;47.97
14393;BME280;7281;42.678;23.372;2022-10-16T03:57:56;95831.25;;;13.26;48.57
14393;BME280;7281;42.678;23.372;2022-10-16T04:00:23;95821.78;;;13.56;47.72
14393;BME280;7281;42.678;23.372;2022-10-16T04:02:50;95822.00;;;13.50;47.78
14393;BME280;7281;42.678;23.372;2022-10-16T04:05:17;95822.56;;;13.57;47.97
14393;BME280;7281;42.678;23.372;2022-10-16T04:07:44;95826.34;;;13.66;47.44
14393;BME280;7281;42.678;23.372;2022-10-16T04:10:11;95831.50;;;13.56;47.02
14393;BME280;7281;42.678;23.372;2022-10-16T04:12:37;95828.56;;;13.52;47.69
14393;BME280;7281;42.678;23.372;2022-10-16T04:15:05;95833.69;;;13.64;47.17
14393;BME280;7281;42.678;23.372;2022-10-16T04:17:32;95831.75;;;13.23;48.35
14393;BME280;7281;42.678;23.372;2022-10-16T04:19:59;95824.53;;;13.40;47.70
14393;BME280;7281;42.678;23.372;2022-10-16T04:22:26;95832.94;;;13.10;48.31
14393;BME280;7281;42.678;23.372;2022-10-16T04:24:58;95841.38;;;13.39;48.19
14393;BME280;7281;42.678;23.372;2022-10-16T04:27:25;95840.16;;;13.51;47.82
14393;BME280;7281;42.678;23.372;2022-10-16T04:29:53;95837.59;;;13.30;47.72
14393;BME280;7281;42.678;23.372;2022-10-16T04:32:20;95842.28;;;13.23;47.84
14393;BME280;7281;42.678;23.372;2022-10-16T04:34:47;95842.38;;;13.33;47.69
14393;BME280;7281;42.678;23.372;2022-10-16T04:37:13;95839.47;;;13.34;48.16
14393;BME280;7281;42.678;23.372;2022-10-16T04:39:40;95851.78;;;13.29;48.32
14393;BME280;7281;42.678;23.372;2022-10-16T04:42:07;95845.66;;;13.18;47.81
14393;BME280;7281;42.678;23.372;2022-10-16T04:44:34;95855.38;;;13.17;48.43
14393;BME280;7281;42.678;23.372;2022-10-16T04:47:01;95859.69;;;12.80;49.10
14393;BME280;7281;42.678;23.372;2022-10-16T04:49:28;95860.63;;;13.17;47.87
14393;BME280;7281;42.678;23.372;2022-10-16T04:51:55;95863.94;;;13.30;47.63
14393;BME280;7281;42.678;23.372;2022-10-16T04:54:21;95862.31;;;13.29;47.86
14393;BME280;7281;42.678;23.372;2022-10-16T04:56:48;95864.41;;;13.53;47.46
14393;BME280;7281;42.678;23.372;2022-10-16T04:59:19;95865.31;;;13.37;47.54
14393;BME280;7281;42.678;23.372;2022-10-16T05:01:46;95866.00;;;13.28;47.79
14393;BME280;7281;42.678;23.372;2022-10-16T05:04:13;95885.03;;;13.35;48.13
14393;BME280;7281;42.678;23.372;2022-10-16T05:06:41;95875.78;;;13.05;48.43
14393;BME280;7281;42.678;23.372;2022-10-16T05:09:09;95886.56;;;13.31;48.22
14393;BME280;7281;42.678;23.372;2022-10-16T05:11:36;95882.91;;;13.32;47.67
14393;BME280;7281;42.678;23.372;2022-10-16T05:14:03;95881.69;;;13.17;48.15
14393;BME280;7281;42.678;23.372;2022-10-16T05:16:29;95878.53;;;13.15;48.56
14393;BME280;7281;42.678;23.372;2022-10-16T05:18:57;95882.91;;;12.67;49.60
14393;BME280;7281;42.678;23.372;2022-10-16T05:21:44;95891.81;;;13.04;48.63
14393;BME280;7281;42.678;23.372;2022-10-16T05:24:11;95868.78;;;12.94;49.03
14393;BME280;7281;42.678;23.372;2022-10-16T05:26:38;95901.03;;;13.06;48.95
14393;BME280;7281;42.678;23.372;2022-10-16T05:29:05;95891.19;;;13.45;48.53
14393;BME280;7281;42.678;23.372;2022-10-16T05:31:31;95891.06;;;13.30;48.91
14393;BME280;7281;42.678;23.372;2022-10-16T05:33:59;95885.31;;;13.11;49.26
14393;BME280;7281;42.678;23.372;2022-10-16T05:36:26;95886.94;;;13.17;48.41
14393;BME280;7281;42.678;23.372;2022-10-16T05:38:53;95894.06;;;13.17;48.87
14393;BME280;7281;42.678;23.372;2022-10-16T05:41:20;95889.78;;;13.38;48.73
14393;BME280;7281;42.678;23.372;2022-10-16T05:43:48;95898.69;;;13.32;48.75
14393;BME280;7281;42.678;23.372;2022-10-16T05:46:15;95906.22;;;13.45;48.10
14393;BME280;7281;42.678;23.372;2022-10-16T05:48:42;95906.91;;;13.35;49.16
14393;BME280;7281;42.678;23.372;2022-10-16T05:51:11;95906.84;;;13.57;48.95
14393;BME280;7281;42.678;23.372;2022-10-16T05:53:39;95905.63;;;13.69;48.83
14393;BME280;7281;42.678;23.372;2022-10-16T05:56:09;95905.91;;;13.68;49.13
14393;BME280;7281;42.678;23.372;2022-10-16T05:58:37;95907.19;;;13.97;48.91
14393;BME280;7281;42.678;23.372;2022-10-16T06:03:36;95921.91;;;13.93;49.49
14393;BME280;7281;42.678;23.372;2022-10-16T06:06:13;95931.72;;;14.29;48.88
14393;BME280;7281;42.678;23.372;2022-10-16T06:08:41;95934.31;;;13.17;52.54
14393;BME280;7281;42.678;23.372;2022-10-16T06:11:12;95930.69;;;13.45;51.56
14393;BME280;7281;42.678;23.372;2022-10-16T06:13:40;95934.78;;;12.71;53.97
14393;BME280;7281;42.678;23.372;2022-10-16T06:16:10;95944.25;;;13.10;52.39
14393;BME280;7281;42.678;23.372;2022-10-16T06:18:37;95934.84;;;12.76;53.42
14393;BME280;7281;42.678;23.372;2022-10-16T06:21:10;95945.03;;;13.11;52.17
14393;BME280;7281;42.678;23.372;2022-10-16T06:23:37;95953.59;;;12.63;53.96
14393;BME280;7281;42.678;23.372;2022-10-16T06:26:11;95948.91;;;12.87;52.50
14393;BME280;7281;42.678;23.372;2022-10-16T06:28:39;95947.66;;;13.33;51.32
14393;BME280;7281;42.678;23.372;2022-10-16T06:31:08;95953.78;;;13.16;51.66
14393;BME280;7281;42.678;23.372;2022-10-16T06:33:36;95952.63;;;13.56;50.76
14393;BME280;7281;42.678;23.372;2022-10-16T06:36:10;95954.16;;;13.03;52.38
14393;BME280;7281;42.678;23.372;2022-10-16T06:38:37;95955.50;;;13.06;52.49
14393;BME280;7281;42.678;23.372;2022-10-16T06:41:07;95950.16;;;13.97;50.04
14393;BME280;7281;42.678;23.372;2022-10-16T06:43:36;95962.09;;;13.52;50.86
14393;BME280;7281;42.678;23.372;2022-10-16T06:46:04;95949.41;;;13.49;50.92
14393;BME280;7281;42.678;23.372;2022-10-16T06:48:31;95957.31;;;13.49;51.02
14393;BME280;7281;42.678;23.372;2022-10-16T06:51:02;95960.50;;;14.04;49.78
14393;BME280;7281;42.678;23.372;2022-10-16T06:53:32;95976.22;;;13.67;50.85
14393;BME280;7281;42.678;23.372;2022-10-16T06:56:13;95972.50;;;13.42;51.53
14393;BME280;7281;42.678;23.372;2022-10-16T06:58:41;95974.78;;;14.40;49.48
14393;BME280;7281;42.678;23.372;2022-10-16T07:01:10;95983.63;;;13.97;49.56
14393;BME280;7281;42.678;23.372;2022-10-16T07:03:39;95983.84;;;14.22;50.01
14393;BME280;7281;42.678;23.372;2022-10-16T07:06:08;95972.94;;;14.82;48.27
14393;BME280;7281;42.678;23.372;2022-10-16T07:08:38;95983.38;;;14.62;48.41
14393;BME280;7281;42.678;23.372;2022-10-16T07:11:07;95981.16;;;14.17;50.86
14393;BME280;7281;42.678;23.372;2022-10-16T07:13:35;95978.06;;;14.98;48.33
14393;BME280;7281;42.678;23.372;2022-10-16T07:16:14;95982.25;;;14.21;50.63
14393;BME280;7281;42.678;23.372;2022-10-16T07:18:41;95985.72;;;14.58;49.04
14393;BME280;7281;42.678;23.372;2022-10-16T07:21:15;95987.03;;;14.97;48.52
14393;BME280;7281;42.678;23.372;2022-10-16T07:23:43;95988.91;;;15.59;47.02
14393;BME280;7281;42.678;23.372;2022-10-16T07:26:10;95988.56;;;14.88;48.99
14393;BME280;7281;42.678;23.372;2022-10-16T07:28:38;95984.69;;;15.63;47.54
14393;BME280;7281;42.678;23.372;2022-10-16T07:31:09;95971.75;;;14.99;48.17
14393;BME280;7281;42.678;23.372;2022-10-16T07:33:38;95989.97;;;15.06;48.51
14393;BME280;7281;42.678;23.372;2022-10-16T07:36:05;95981.72;;;14.92;48.28
14393;BME280;7281;42.678;23.372;2022-10-16T07:38:34;95987.97;;;15.28;48.71
14393;BME280;7281;42.678;23.372;2022-10-16T07:41:03;95993.16;;;15.60;47.26
14393;BME280;7281;42.678;23.372;2022-10-16T07:43:31;95991.84;;;15.10;48.29
14393;BME280;7281;42.678;23.372;2022-10-16T07:45:58;95995.75;;;15.50;47.95
14393;BME280;7281;42.678;23.372;2022-10-16T07:48:32;95994.28;;;15.94;46.54
14393;BME280;7281;42.678;23.372;2022-10-16T07:51:05;95995.25;;;15.63;48.06
14393;BME280;7281;42.678;23.372;2022-10-16T07:53:32;95974.72;;;16.15;46.43
14393;BME280;7281;42.678;23.372;2022-10-16T07:56:01;95981.09;;;16.14;46.11
14393;BME280;7281;42.678;23.372;2022-10-16T07:58:29;95976.34;;;16.71;45.22
14393;BME280;7281;42.678;23.372;2022-10-16T08:00:56;95988.50;;;16.57;45.48
14393;BME280;7281;42.678;23.372;2022-10-16T08:03:24;95994.25;;;17.04;44.82
14393;BME280;7281;42.678;23.372;2022-10-16T08:05:51;95985.53;;;17.78;43.09
14393;BME280;7281;42.678;23.372;2022-10-16T08:08:20;95998.53;;;16.95;44.43
14393;BME280;7281;42.678;23.372;2022-10-16T08:10:46;95984.88;;;18.01;42.96
14393;BME280;7281;42.678;23.372;2022-10-16T08:13:13;95985.69;;;17.38;43.28
14393;BME280;7281;42.678;23.372;2022-10-16T08:15:45;95987.03;;;17.35;43.41
14393;BME280;7281;42.678;23.372;2022-10-16T08:18:14;95977.59;;;17.73;42.84
14393;BME280;7281;42.678;23.372;2022-10-16T08:20:41;95971.88;;;18.72;41.10
14393;BME280;7281;42.678;23.372;2022-10-16T08:23:12;95985.47;;;17.88;42.42
14393;BME280;7281;42.678;23.372;2022-10-16T08:25:40;95970.81;;;19.20;40.38
14393;BME280;7281;42.678;23.372;2022-10-16T08:28:09;95973.09;;;19.08;40.47
14393;BME280;7281;42.678;23.372;2022-10-16T08:30:36;95967.56;;;18.47;40.85
14393;BME280;7281;42.678;23.372;2022-10-16T08:33:04;95969.53;;;18.65;39.90
14393;BME280;7281;42.678;23.372;2022-10-16T08:35:30;95963.50;;;18.83;40.58
14393;BME280;7281;42.678;23.372;2022-10-16T08:37:58;95964.59;;;18.82;40.19
14393;BME280;7281;42.678;23.372;2022-10-16T08:40:30;95965.19;;;19.27;40.01
14393;BME280;7281;42.678;23.372;2022-10-16T08:43:30;95962.97;;;19.94;38.32
14393;BME280;7281;42.678;23.372;2022-10-16T08:46:25;95968.75;;;19.83;38.87
14393;BME280;7281;42.678;23.372;2022-10-16T08:48:59;95971.91;;;19.43;37.43
14393;BME280;7281;42.678;23.372;2022-10-16T08:51:30;95972.53;;;20.14;36.69
14393;BME280;7281;42.678;23.372;2022-10-16T08:54:06;95960.69;;;20.57;35.84
14393;BME280;7281;42.678;23.372;2022-10-16T08:56:35;95972.84;;;19.94;36.42
14393;BME280;7281;42.678;23.372;2022-10-16T08:59:06;95972.41;;;20.24;34.98
14393;BME280;7281;42.678;23.372;2022-10-16T09:01:43;95974.28;;;19.86;34.97
14393;BME280;7281;42.678;23.372;2022-10-16T09:07:36;95964.22;;;20.85;33.62
14393;BME280;7281;42.678;23.372;2022-10-16T09:12:55;95956.56;;;21.10;33.32
14393;BME280;7281;42.678;23.372;2022-10-16T09:15:33;95963.25;;;20.94;34.08
14393;BME280;7281;42.678;23.372;2022-10-16T09:23:35;95960.78;;;20.98;33.61
14393;BME280;7281;42.678;23.372;2022-10-16T09:26:04;95956.97;;;21.45;32.74
14393;BME280;7281;42.678;23.372;2022-10-16T09:28:32;95955.78;;;21.24;33.28
14393;BME280;7281;42.678;23.372;2022-10-16T09:30:59;95969.41;;;21.36;33.60
14393;BME280;7281;42.678;23.372;2022-10-16T09:33:30;95958.16;;;22.01;32.31
14393;BME280;7281;42.678;23.372;2022-10-16T09:36:02;95948.66;;;22.31;31.69
14393;BME280;7281;42.678;23.372;2022-10-16T09:38:31;95949.25;;;22.28;30.43
14393;BME280;7281;42.678;23.372;2022-10-16T09:41:00;95945.91;;;22.58;30.75
14393;BME280;7281;42.678;23.372;2022-10-16T09:46:07;95944.84;;;21.88;31.58
14393;BME280;7281;42.678;23.372;2022-10-16T09:48:39;95941.66;;;21.50;32.68
14393;BME280;7281;42.678;23.372;2022-10-16T09:51:22;95939.16;;;21.54;31.80
14393;BME280;7281;42.678;23.372;2022-10-16T09:53:55;95943.75;;;21.75;32.25
14393;BME280;7281;42.678;23.372;2022-10-16T09:56:28;95933.78;;;21.94;31.68
14393;BME280;7281;42.678;23.372;2022-10-16T09:59:00;95934.84;;;22.29;31.12
14393;BME280;7281;42.678;23.372;2022-10-16T10:01:46;95932.38;;;21.97;31.27
14393;BME280;7281;42.678;23.372;2022-10-16T10:04:13;95927.88;;;21.84;32.27
14393;BME280;7281;42.678;23.372;2022-10-16T10:09:23;95925.34;;;22.67;29.53
14393;BME280;7281;42.678;23.372;2022-10-16T10:11:55;95923.72;;;22.36;30.04
14393;BME280;7281;42.678;23.372;2022-10-16T10:14:35;95920.81;;;22.24;29.74
14393;BME280;7281;42.678;23.372;2022-10-16T10:19:40;95921.03;;;22.13;31.02
14393;BME280;7281;42.678;23.372;2022-10-16T10:35:40;95910.78;;;22.07;31.16
14393;BME280;7281;42.678;23.372;2022-10-16T10:38:27;95905.09;;;22.44;30.14
14393;BME280;7281;42.678;23.372;2022-10-16T10:43:47;95896.31;;;22.52;30.08
14393;BME280;7281;42.678;23.372;2022-10-16T10:46:31;95892.41;;;22.50;30.19
14393;BME280;7281;42.678;23.372;2022-10-16T11:01:01;95894.50;;;22.61;30.12
14393;BME280;7281;42.678;23.372;2022-10-16T11:06:44;95879.59;;;22.38;29.63
14393;BME280;7281;42.678;23.372;2022-10-16T11:09:40;95876.66;;;23.09;28.73
14393;BME280;7281;42.678;23.372;2022-10-16T11:12:21;95873.03;;;22.44;30.79
14393;BME280;7281;42.678;23.372;2022-10-16T11:15:01;95871.78;;;22.50;29.98
14393;BME280;7281;42.678;23.372;2022-10-16T11:17:38;95873.84;;;22.75;28.89
14393;BME280;7281;42.678;23.372;2022-10-16T11:20:25;95871.81;;;23.29;28.77
14393;BME280;7281;42.678;23.372;2022-10-16T11:25:28;95862.97;;;23.20;29.15
14393;BME280;7281;42.678;23.372;2022-10-16T11:28:13;95857.25;;;23.86;28.39
14393;BME280;7281;42.678;23.372;2022-10-16T11:30:52;95862.63;;;22.95;29.79
14393;BME280;7281;42.678;23.372;2022-10-16T11:33:31;95853.81;;;23.03;29.99
14393;BME280;7281;42.678;23.372;2022-10-16T11:36:15;95856.16;;;23.70;29.11
14393;BME280;7281;42.678;23.372;2022-10-16T11:41:35;95861.75;;;24.45;27.67
14393;BME280;7281;42.678;23.372;2022-10-16T11:47:01;95853.91;;;24.40;27.58
14393;BME280;7281;42.678;23.372;2022-10-16T11:49:52;95859.28;;;23.89;28.40
14393;BME280;7281;42.678;23.372;2022-10-16T11:55:20;95859.50;;;24.73;27.18
14393;BME280;7281;42.678;23.372;2022-10-16T11:57:52;95858.41;;;24.57;28.32
14393;BME280;7281;42.678;23.372;2022-10-16T12:00:24;95862.44;;;23.91;26.89
14393;BME280;7281;42.678;23.372;2022-10-16T12:05:41;95850.72;;;25.01;26.88
14393;BME280;7281;42.678;23.372;2022-10-16T12:08:16;95828.09;;;25.40;26.23
14393;BME280;7281;42.678;23.372;2022-10-16T12:10:45;95849.06;;;25.47;26.18
14393;BME280;7281;42.678;23.372;2022-10-16T12:13:32;95849.06;;;25.09;25.80
14393;BME280;7281;42.678;23.372;2022-10-16T12:18:45;95842.25;;;25.70;25.00
14393;BME280;7281;42.678;23.372;2022-10-16T12:21:14;95850.28;;;25.20;25.81
14393;BME280;7281;42.678;23.372;2022-10-16T12:23:53;95842.28;;;26.02;25.33
14393;BME280;7281;42.678;23.372;2022-10-16T12:26:29;95842.59;;;26.66;24.56
14393;BME280;7281;42.678;23.372;2022-10-16T12:29:22;95848.25;;;26.08;24.78
14393;BME280;7281;42.678;23.372;2022-10-16T12:31:50;95839.94;;;27.51;23.42
14393;BME280;7281;42.678;23.372;2022-10-16T12:36:54;95842.34;;;26.47;23.79
14393;BME280;7281;42.678;23.372;2022-10-16T12:39:24;95851.84;;;27.26;23.45
14393;BME280;7281;42.678;23.372;2022-10-16T12:42:04;95841.97;;;27.18;23.69
14393;BME280;7281;42.678;23.372;2022-10-16T12:44:35;95842.03;;;27.69;23.26
14393;BME280;7281;42.678;23.372;2022-10-16T12:47:02;95839.94;;;28.03;22.92
14393;BME280;7281;42.678;23.372;2022-10-16T12:49:37;95843.31;;;29.02;22.19
14393;BME280;7281;42.678;23.372;2022-10-16T12:52:25;95843.56;;;29.78;21.80
14393;BME280;7281;42.678;23.372;2022-10-16T12:54:56;95840.94;;;30.61;20.13
14393;BME280;7281;42.678;23.372;2022-10-16T13:14:42;95848.94;;;30.54;19.81
14393;BME280;7281;42.678;23.372;2022-10-16T13:23:14;95839.44;;;31.88;19.18
14393;BME280;7281;42.678;23.372;2022-10-16T13:28:21;95850.16;;;31.25;19.08
14393;BME280;7281;42.678;23.372;2022-10-16T13:30:58;95846.53;;;29.73;19.62
14393;BME280;7281;42.678;23.372;2022-10-16T13:33:39;95847.84;;;31.27;19.65
14393;BME280;7281;42.678;23.372;2022-10-16T13:39:16;95845.97;;;31.83;18.27
14393;BME280;7281;42.678;23.372;2022-10-16T13:42:11;95848.78;;;31.90;18.20
14393;BME280;7281;42.678;23.372;2022-10-16T13:44:51;95846.63;;;30.98;19.50
14393;BME280;7281;42.678;23.372;2022-10-16T13:47:24;95859.84;;;30.20;20.11
14393;BME280;7281;42.678;23.372;2022-10-16T13:50:03;95855.91;;;29.44;19.96
14393;BME280;7281;42.678;23.372;2022-10-16T13:52:32;95859.34;;;29.26;20.89
14393;BME280;7281;42.678;23.372;2022-10-16T13:54:59;95857.13;;;28.69;21.34
14393;BME280;7281;42.678;23.372;2022-10-16T13:57:28;95857.13;;;28.69;21.65
14393;BME280;7281;42.678;23.372;2022-10-16T13:59:55;95868.56;;;29.25;20.86
14393;BME280;7281;42.678;23.372;2022-10-16T14:02:33;95862.28;;;28.89;21.13
14393;BME280;7281;42.678;23.372;2022-10-16T14:05:03;95867.28;;;28.44;21.45
14393;BME280;7281;42.678;23.372;2022-10-16T14:07:32;95869.91;;;28.29;21.36
14393;BME280;7281;42.678;23.372;2022-10-16T14:10:18;95872.50;;;28.25;21.16
14393;BME280;7281;42.678;23.372;2022-10-16T14:12:55;95880.66;;;27.25;21.99
14393;BME280;7281;42.678;23.372;2022-10-16T14:15:22;95885.00;;;28.18;21.38
14393;BME280;7281;42.678;23.372;2022-10-16T14:17:51;95884.59;;;27.16;21.16
14393;BME280;7281;42.678;23.372;2022-10-16T14:20:19;95883.00;;;26.78;21.67
14393;BME280;7281;42.678;23.372;2022-10-16T14:22:59;95889.25;;;26.38;22.03
14393;BME280;7281;42.678;23.372;2022-10-16T14:25:29;95888.34;;;25.92;22.63
14393;BME280;7281;42.678;23.372;2022-10-16T14:28:18;95899.28;;;25.00;22.97
14393;BME280;7281;42.678;23.372;2022-10-16T14:31:14;95905.81;;;24.90;23.46
14393;BME280;7281;42.678;23.372;2022-10-16T14:33:40;95902.38;;;24.73;24.12
14393;BME280;7281;42.678;23.372;2022-10-16T14:38:39;95899.13;;;23.90;24.92
14393;BME280;7281;42.678;23.372;2022-10-16T14:41:07;95903.88;;;23.29;25.91
14393;BME280;7281;42.678;23.372;2022-10-16T14:43:35;95917.19;;;22.50;26.28
14393;BME280;7281;42.678;23.372;2022-10-16T14:46:12;95902.09;;;23.46;25.88
14393;BME280;7281;42.678;23.372;2022-10-16T14:48:42;95912.91;;;23.41;25.60
14393;BME280;7281;42.678;23.372;2022-10-16T14:51:19;95921.97;;;23.23;25.34
14393;BME280;7281;42.678;23.372;2022-10-16T14:53:46;95926.50;;;23.14;25.96
14393;BME280;7281;42.678;23.372;2022-10-16T14:56:22;95926.28;;;23.33;25.42
14393;BME280;7281;42.678;23.372;2022-10-16T14:58:51;95921.09;;;22.97;26.46
14393;BME280;7281;42.678;23.372;2022-10-16T15:01:19;95927.22;;;22.97;26.58
14393;BME280;7281;42.678;23.372;2022-10-16T15:03:46;95900.81;;;21.99;26.86
14393;BME280;7281;42.678;23.372;2022-10-16T15:06:16;95925.13;;;22.11;27.29
14393;BME280;7281;42.678;23.372;2022-10-16T15:08:43;95920.81;;;22.24;26.72
14393;BME280;7281;42.678;23.372;2022-10-16T15:11:18;95922.72;;;21.74;27.84
14393;BME280;7281;42.678;23.372;2022-10-16T15:13:46;95930.47;;;22.33;27.49
14393;BME280;7281;42.678;23.372;2022-10-16T15:16:16;95920.84;;;22.54;27.19
14393;BME280;7281;42.678;23.372;2022-10-16T15:18:43;95920.25;;;22.57;27.03
14393;BME280;7281;42.678;23.372;2022-10-16T15:21:24;95935.44;;;22.26;28.02